createdAt,value
2017-07-10T00:00:11.873Z,16.00
2017-07-10T00:02:40.165Z,15.90
2017-07-10T00:05:08.553Z,15.90
2017-07-10T00:07:36.864Z,15.80
2017-07-10T00:10:05.193Z,15.80
2017-07-10T00:12:34.552Z,15.80
2017-07-10T00:15:02.930Z,15.80
2017-07-10T00:17:31.250Z,15.80
2017-07-10T00:19:59.558Z,15.70
2017-07-10T00:22:27.955Z,15.80
2017-07-10T00:24:56.304Z,15.80
2017-07-10T00:27:24.637Z,15.70
2017-07-10T00:29:52.978Z,15.80
2017-07-10T00:32:21.321Z,15.80
2017-07-10T00:34:49.635Z,15.80
2017-07-10T00:37:17.965Z,15.90
2017-07-10T00:39:46.271Z,15.90
2017-07-10T00:42:14.742Z,16.10
2017-07-10T00:44:43.043Z,16.00
2017-07-10T00:47:11.387Z,16.20
2017-07-10T00:49:39.693Z,16.20
2017-07-10T00:52:08.061Z,16.10
2017-07-10T00:54:36.369Z,16.10
2017-07-10T00:57:04.708Z,16.10
2017-07-10T00:59:33.012Z,16.10
2017-07-10T01:02:01.348Z,16.00
2017-07-10T01:04:29.644Z,15.90
2017-07-10T01:06:57.976Z,16.00
2017-07-10T01:09:27.189Z,16.00
2017-07-10T01:11:55.524Z,16.00
2017-07-10T01:14:23.828Z,16.00
2017-07-10T01:16:52.924Z,16.10
2017-07-10T01:19:21.236Z,16.10
2017-07-10T01:21:49.560Z,16.10
2017-07-10T01:24:17.859Z,16.10
2017-07-10T01:26:46.211Z,16.20
2017-07-10T01:29:14.515Z,16.20
2017-07-10T01:31:42.836Z,16.10
2017-07-10T01:34:11.140Z,16.00
2017-07-10T01:36:40.225Z,16.00
2017-07-10T01:39:08.588Z,15.90
2017-07-10T01:41:36.883Z,15.90
2017-07-10T01:44:05.242Z,15.90
2017-07-10T01:46:33.560Z,15.80
2017-07-10T01:49:01.963Z,15.80
2017-07-10T01:51:30.269Z,15.80
2017-07-10T01:53:58.562Z,15.80
2017-07-10T01:56:26.876Z,15.80
2017-07-10T01:58:55.202Z,15.80
2017-07-10T02:01:23.509Z,15.90
2017-07-10T02:03:52.580Z,15.90
2017-07-10T02:06:21.116Z,15.90
2017-07-10T02:08:49.417Z,15.90
2017-07-10T02:11:17.717Z,15.90
2017-07-10T02:13:46.034Z,15.80
2017-07-10T02:16:14.360Z,15.80
2017-07-10T02:18:42.677Z,15.80
2017-07-10T02:21:10.982Z,15.80
2017-07-10T02:23:39.315Z,15.80
2017-07-10T02:26:08.385Z,15.80
2017-07-10T02:28:36.716Z,15.80
2017-07-10T02:31:05.019Z,15.70
2017-07-10T02:33:34.174Z,15.80
2017-07-10T02:36:02.519Z,15.80
2017-07-10T02:38:30.933Z,15.70
2017-07-10T02:40:59.223Z,15.70
2017-07-10T02:43:27.560Z,15.80
2017-07-10T02:45:55.868Z,15.70
2017-07-10T02:48:24.191Z,15.70
2017-07-10T02:50:52.488Z,15.60
2017-07-10T02:53:20.812Z,15.60
2017-07-10T02:55:50.342Z,15.60
2017-07-10T02:58:18.670Z,15.50
2017-07-10T03:00:46.984Z,15.60
2017-07-10T03:03:15.308Z,15.50
2017-07-10T03:05:44.391Z,15.60
2017-07-10T03:08:12.781Z,15.50
2017-07-10T03:10:41.860Z,15.50
2017-07-10T03:13:10.177Z,15.50
2017-07-10T03:15:38.474Z,15.50
2017-07-10T03:18:06.787Z,15.50
2017-07-10T03:20:35.100Z,15.50
2017-07-10T03:23:03.395Z,15.50
2017-07-10T03:25:31.689Z,15.50
2017-07-10T03:27:59.979Z,15.60
2017-07-10T03:30:28.297Z,15.50
2017-07-10T03:32:57.470Z,15.50
2017-07-10T03:35:25.783Z,15.50
2017-07-10T03:37:54.099Z,15.50
2017-07-10T03:40:22.445Z,15.50
2017-07-10T03:42:51.572Z,15.50
2017-07-10T03:45:19.967Z,15.50
2017-07-10T03:47:48.310Z,15.50
2017-07-10T03:50:16.840Z,15.50
2017-07-10T03:52:45.144Z,15.50
2017-07-10T03:55:13.436Z,15.60
2017-07-10T03:57:41.766Z,15.50
2017-07-10T04:00:10.073Z,15.50
2017-07-10T04:02:38.405Z,15.50
2017-07-10T04:05:06.712Z,15.50
2017-07-10T04:07:35.801Z,15.60
2017-07-10T04:10:04.874Z,15.50
2017-07-10T04:12:33.198Z,15.50
2017-07-10T04:15:01.498Z,15.50
2017-07-10T04:17:29.830Z,15.50
2017-07-10T04:19:58.892Z,15.60
2017-07-10T04:22:30.147Z,15.60
2017-07-10T04:24:58.459Z,15.50
2017-07-10T04:27:26.784Z,15.60
2017-07-10T04:29:55.093Z,15.50
2017-07-10T04:32:23.391Z,15.60
2017-07-10T04:34:51.753Z,15.60
2017-07-10T04:37:20.484Z,15.70
2017-07-10T04:39:48.801Z,15.70
2017-07-10T04:42:17.862Z,15.80
2017-07-10T04:44:46.183Z,15.70
2017-07-10T04:47:15.453Z,15.80
2017-07-10T04:49:43.730Z,15.80
2017-07-10T04:52:12.030Z,15.90
2017-07-10T04:54:41.132Z,15.90
2017-07-10T04:57:10.253Z,16.00
2017-07-10T04:59:38.555Z,16.00
2017-07-10T05:02:07.661Z,16.00
2017-07-10T05:04:36.266Z,16.00
2017-07-10T05:07:04.563Z,16.00
2017-07-10T05:09:33.647Z,16.00
2017-07-10T05:12:01.948Z,16.00
2017-07-10T05:14:30.372Z,16.20
2017-07-10T05:16:58.656Z,16.20
2017-07-10T05:19:26.983Z,16.20
2017-07-10T05:21:55.284Z,16.30
2017-07-10T05:24:23.615Z,16.30
2017-07-10T05:26:52.684Z,16.30
2017-07-10T05:29:21.185Z,16.30
2017-07-10T05:31:50.271Z,16.40
2017-07-10T05:34:18.580Z,16.40
2017-07-10T05:36:46.906Z,16.40
2017-07-10T05:39:15.213Z,16.50
2017-07-10T05:41:44.508Z,16.50
2017-07-10T05:44:13.596Z,16.50
2017-07-10T05:46:42.345Z,16.50
2017-07-10T05:49:11.066Z,16.50
2017-07-10T05:51:39.386Z,16.60
2017-07-10T05:54:07.816Z,16.50
2017-07-10T05:56:36.145Z,16.50
2017-07-10T05:59:04.455Z,16.50
2017-07-10T06:01:32.776Z,16.50
2017-07-10T06:04:01.115Z,16.70
2017-07-10T06:06:29.420Z,16.90
2017-07-10T06:08:58.499Z,16.90
2017-07-10T06:11:27.781Z,17.00
2017-07-10T06:13:56.096Z,17.00
2017-07-10T06:16:24.435Z,17.00
2017-07-10T06:18:53.665Z,17.10
2017-07-10T06:21:21.955Z,17.10
2017-07-10T06:23:50.278Z,17.00
2017-07-10T06:26:18.614Z,16.90
2017-07-10T06:28:46.936Z,17.00
2017-07-10T06:31:15.259Z,17.00
2017-07-10T06:33:44.407Z,17.00
2017-07-10T06:36:12.751Z,17.00
2017-07-10T06:38:41.047Z,17.00
2017-07-10T06:41:09.388Z,17.00
2017-07-10T06:43:37.702Z,17.10
2017-07-10T06:46:06.007Z,17.10
2017-07-10T06:48:34.446Z,17.10
2017-07-10T06:51:02.744Z,17.10
2017-07-10T06:53:31.072Z,17.10
2017-07-10T06:55:59.373Z,17.20
2017-07-10T06:58:27.772Z,17.10
2017-07-10T07:00:56.184Z,17.10
2017-07-10T07:03:24.486Z,17.00
2017-07-10T07:05:52.804Z,16.90
2017-07-10T07:08:21.097Z,16.90
2017-07-10T07:10:49.420Z,16.90
2017-07-10T07:13:17.743Z,17.00
2017-07-10T07:15:46.058Z,17.10
2017-07-10T07:18:14.373Z,17.10
2017-07-10T07:20:42.730Z,17.20
2017-07-10T07:23:11.029Z,17.20
2017-07-10T07:25:39.421Z,17.20
2017-07-10T07:28:07.845Z,17.20
2017-07-10T07:30:36.142Z,17.30
2017-07-10T07:33:04.441Z,17.30
2017-07-10T07:35:32.758Z,17.30
2017-07-10T07:38:01.811Z,17.40
2017-07-10T07:40:30.148Z,17.40
2017-07-10T07:42:58.725Z,17.40
2017-07-10T07:45:27.016Z,17.50
2017-07-10T07:47:55.319Z,17.50
2017-07-10T07:50:23.665Z,17.60
2017-07-10T07:52:51.968Z,17.50
2017-07-10T07:55:20.335Z,17.60
2017-07-10T07:57:48.684Z,17.60
2017-07-10T08:00:16.987Z,17.60
2017-07-10T08:02:45.313Z,17.70
2017-07-10T08:05:13.615Z,17.80
2017-07-10T08:07:41.928Z,17.90
2017-07-10T08:10:10.284Z,17.90
2017-07-10T08:12:38.658Z,17.90
2017-07-10T08:15:06.961Z,18.00
2017-07-10T08:17:35.275Z,18.00
2017-07-10T08:20:04.334Z,18.10
2017-07-10T08:22:32.658Z,18.00
2017-07-10T08:25:01.740Z,18.00
2017-07-10T08:27:30.814Z,18.10
2017-07-10T08:29:59.133Z,18.00
2017-07-10T08:32:27.434Z,18.10
2017-07-10T08:34:55.821Z,18.30
2017-07-10T08:37:24.157Z,18.20
2017-07-10T08:39:53.212Z,18.30
2017-07-10T08:42:21.578Z,18.30
2017-07-10T08:44:49.869Z,18.30
2017-07-10T08:47:18.188Z,18.30
2017-07-10T08:49:46.498Z,18.30
2017-07-10T08:52:14.838Z,18.40
2017-07-10T08:54:43.156Z,18.50
2017-07-10T08:57:11.473Z,18.50
2017-07-10T08:59:39.805Z,18.50
2017-07-10T09:02:08.139Z,18.50
2017-07-10T09:04:36.440Z,18.50
2017-07-10T09:07:04.751Z,18.50
2017-07-10T09:09:33.074Z,18.60
2017-07-10T09:12:01.380Z,18.70
2017-07-10T09:14:29.708Z,18.70
2017-07-10T09:16:58.115Z,18.80
2017-07-10T09:19:26.449Z,18.90
2017-07-10T09:21:54.770Z,18.90
2017-07-10T09:24:23.198Z,18.90
2017-07-10T09:26:51.484Z,19.00
2017-07-10T09:29:20.173Z,19.10
2017-07-10T09:31:48.477Z,19.30
2017-07-10T09:34:16.804Z,19.30
2017-07-10T09:36:45.113Z,19.30
2017-07-10T09:39:14.193Z,19.40
2017-07-10T09:41:42.524Z,19.40
2017-07-10T09:44:10.851Z,19.60
2017-07-10T09:46:39.161Z,19.80
2017-07-10T09:49:07.481Z,19.90
2017-07-10T09:51:35.789Z,19.90
2017-07-10T09:54:05.036Z,19.90
2017-07-10T09:56:33.333Z,19.80
2017-07-10T09:59:01.656Z,20.00
2017-07-10T10:01:30.715Z,20.00
2017-07-10T10:03:59.086Z,20.00
2017-07-10T10:06:27.375Z,20.00
2017-07-10T10:08:55.668Z,20.00
2017-07-10T10:11:24.901Z,19.90
2017-07-10T10:13:53.206Z,19.80
2017-07-10T10:16:21.522Z,20.00
2017-07-10T10:18:49.846Z,20.00
2017-07-10T10:21:18.135Z,19.90
2017-07-10T10:23:46.455Z,20.10
2017-07-10T10:26:14.753Z,20.10
2017-07-10T10:28:43.265Z,20.20
2017-07-10T10:31:11.555Z,20.50
2017-07-10T10:33:39.906Z,20.80
2017-07-10T10:36:08.239Z,21.10
2017-07-10T10:38:37.348Z,21.00
2017-07-10T10:41:05.649Z,21.00
2017-07-10T10:43:33.996Z,20.80
2017-07-10T10:46:02.299Z,20.80
2017-07-10T10:48:30.621Z,20.60
2017-07-10T10:50:58.932Z,20.40
2017-07-10T10:53:27.259Z,20.40
2017-07-10T10:55:55.581Z,20.50
2017-07-10T10:58:23.928Z,20.50
2017-07-10T11:00:52.216Z,20.70
2017-07-10T11:03:21.363Z,20.80
2017-07-10T11:05:49.655Z,20.70
2017-07-10T11:08:18.113Z,21.00
2017-07-10T11:10:46.414Z,21.00
2017-07-10T11:13:14.712Z,21.30
2017-07-10T11:15:43.068Z,21.50
2017-07-10T11:18:11.364Z,21.50
2017-07-10T11:20:39.668Z,21.70
2017-07-10T11:23:08.057Z,21.80
2017-07-10T11:25:36.399Z,21.90
2017-07-10T11:28:04.741Z,21.90
2017-07-10T11:30:33.159Z,21.90
2017-07-10T11:33:01.492Z,22.40
2017-07-10T11:35:29.808Z,22.80
2017-07-10T11:37:58.889Z,23.60
2017-07-10T11:40:27.238Z,23.60
2017-07-10T11:42:55.529Z,23.80
2017-07-10T11:45:23.857Z,23.90
2017-07-10T11:47:52.160Z,23.50
2017-07-10T11:50:20.512Z,23.20
2017-07-10T11:52:48.814Z,22.80
2017-07-10T11:55:17.136Z,22.10
2017-07-10T11:57:45.472Z,22.00
2017-07-10T12:00:13.876Z,21.90
2017-07-10T12:02:42.262Z,22.00
2017-07-10T12:05:10.591Z,21.90
2017-07-10T12:07:38.925Z,22.10
2017-07-10T12:10:07.243Z,22.80
2017-07-10T12:12:35.575Z,23.50
2017-07-10T12:15:03.942Z,23.70
2017-07-10T12:17:32.246Z,23.80
2017-07-10T12:20:00.553Z,23.90
2017-07-10T12:22:28.874Z,23.90
2017-07-10T12:24:57.281Z,23.70
2017-07-10T12:27:26.455Z,24.00
2017-07-10T12:29:54.763Z,23.90
2017-07-10T12:32:23.223Z,24.30
2017-07-10T12:34:52.313Z,24.10
2017-07-10T12:37:20.719Z,24.00
2017-07-10T12:39:49.069Z,23.70
2017-07-10T12:42:17.378Z,23.80
2017-07-10T12:44:45.716Z,23.90
2017-07-10T12:47:14.016Z,24.90
2017-07-10T12:49:43.118Z,26.70
2017-07-10T12:52:12.925Z,26.60
2017-07-10T12:54:41.262Z,26.70
2017-07-10T12:57:09.678Z,25.80
2017-07-10T12:59:38.775Z,25.10
2017-07-10T13:02:07.099Z,25.10
2017-07-10T13:04:35.830Z,25.40
2017-07-10T13:07:04.194Z,25.60
2017-07-10T13:09:32.487Z,25.90
2017-07-10T13:12:00.808Z,25.80
2017-07-10T13:14:29.298Z,25.90
2017-07-10T13:16:57.692Z,25.70
2017-07-10T13:19:26.071Z,25.90
2017-07-10T13:21:54.390Z,26.40
2017-07-10T13:24:22.727Z,26.10
2017-07-10T13:26:50.998Z,25.70
2017-07-10T13:29:19.333Z,25.30
2017-07-10T13:31:47.895Z,25.10
2017-07-10T13:34:16.229Z,24.80
2017-07-10T13:36:44.519Z,24.60
2017-07-10T13:39:12.845Z,24.50
2017-07-10T13:41:41.156Z,24.40
2017-07-10T13:44:09.484Z,24.30
2017-07-10T13:46:37.862Z,24.40
2017-07-10T13:49:06.948Z,24.50
2017-07-10T13:51:35.967Z,24.50
2017-07-10T13:54:04.307Z,24.70
2017-07-10T13:56:32.586Z,25.00
2017-07-10T13:59:01.685Z,24.90
2017-07-10T14:01:29.995Z,24.90
2017-07-10T14:03:58.329Z,25.40
2017-07-10T14:06:26.644Z,25.60
2017-07-10T14:08:54.978Z,24.90
2017-07-10T14:11:23.301Z,25.60
2017-07-10T14:13:51.613Z,25.80
2017-07-10T14:16:19.941Z,26.20
2017-07-10T14:18:48.254Z,27.10
2017-07-10T14:21:16.568Z,27.70
2017-07-10T14:23:44.894Z,27.30
2017-07-10T14:26:13.281Z,27.70
2017-07-10T14:28:42.400Z,26.50
2017-07-10T14:31:10.748Z,25.90
2017-07-10T14:33:39.066Z,25.90
2017-07-10T14:36:08.125Z,26.00
2017-07-10T14:38:36.525Z,25.30
2017-07-10T14:41:04.875Z,25.30
2017-07-10T14:43:33.176Z,25.50
2017-07-10T14:46:01.506Z,25.40
2017-07-10T14:48:29.820Z,25.60
2017-07-10T14:50:58.148Z,25.40
2017-07-10T14:53:26.484Z,25.60
2017-07-10T14:55:54.793Z,25.20
2017-07-10T14:58:23.901Z,25.20
2017-07-10T15:00:52.201Z,25.20
2017-07-10T15:03:20.514Z,25.10
2017-07-10T15:05:49.656Z,24.90
2017-07-10T15:08:18.005Z,24.90
2017-07-10T15:10:47.113Z,25.00
2017-07-10T15:13:15.853Z,25.20
2017-07-10T15:15:44.693Z,25.40
2017-07-10T15:18:13.007Z,25.30
2017-07-10T15:20:41.455Z,25.30
2017-07-10T15:23:09.773Z,24.90
2017-07-10T15:25:38.088Z,25.00
2017-07-10T15:28:06.708Z,24.90
2017-07-10T15:30:35.072Z,24.80
2017-07-10T15:33:13.458Z,24.50
2017-07-10T15:35:42.928Z,24.20
2017-07-10T15:38:11.289Z,24.10
2017-07-10T15:40:39.603Z,24.10
2017-07-10T15:43:08.785Z,24.30
2017-07-10T15:45:37.322Z,24.30
2017-07-10T15:48:05.666Z,24.30
2017-07-10T15:50:33.960Z,24.60
2017-07-10T15:53:02.432Z,24.50
2017-07-10T15:55:30.802Z,24.50
2017-07-10T15:57:59.483Z,24.40
2017-07-10T16:00:27.816Z,24.00
2017-07-10T16:02:56.549Z,23.70
2017-07-10T16:05:24.902Z,23.70
2017-07-10T16:07:53.251Z,23.40
2017-07-10T16:10:22.352Z,22.90
2017-07-10T16:12:50.667Z,22.90
2017-07-10T16:15:19.039Z,23.00
2017-07-10T16:17:47.383Z,22.80
2017-07-10T16:20:15.699Z,22.70
2017-07-10T16:22:44.073Z,22.60
2017-07-10T16:25:13.283Z,22.60
2017-07-10T16:27:41.606Z,22.70
2017-07-10T16:30:09.920Z,22.80
2017-07-10T16:32:38.324Z,22.80
2017-07-10T16:35:07.404Z,22.90
2017-07-10T16:37:35.737Z,22.80
2017-07-10T16:40:04.031Z,22.90
2017-07-10T16:42:32.352Z,23.10
2017-07-10T16:45:00.712Z,23.20
2017-07-10T16:47:29.075Z,23.20
2017-07-10T16:49:57.364Z,23.20
2017-07-10T16:52:25.781Z,23.20
2017-07-10T16:54:54.206Z,23.20
2017-07-10T16:57:22.537Z,23.40
2017-07-10T16:59:50.896Z,23.50
2017-07-10T17:02:20.009Z,24.20
2017-07-10T17:04:48.322Z,24.10
2017-07-10T17:07:17.235Z,24.30
2017-07-10T17:09:45.519Z,24.10
2017-07-10T17:12:14.641Z,24.00
2017-07-10T17:14:42.948Z,23.90
2017-07-10T17:17:11.292Z,24.00
2017-07-10T17:19:39.635Z,23.90
2017-07-10T17:22:07.990Z,23.80
2017-07-10T17:24:36.324Z,23.70
2017-07-10T17:27:04.661Z,23.50
2017-07-10T17:29:33.013Z,23.40
2017-07-10T17:32:01.343Z,23.10
2017-07-10T17:34:29.652Z,23.10
2017-07-10T17:36:58.761Z,23.00
2017-07-10T17:39:27.114Z,22.80
2017-07-10T17:41:55.416Z,22.80
2017-07-10T17:44:23.815Z,22.80
2017-07-10T17:46:52.131Z,22.80
2017-07-10T17:49:21.269Z,22.90
2017-07-10T17:51:49.564Z,22.90
2017-07-10T17:54:17.890Z,22.90
2017-07-10T17:56:46.247Z,22.90
2017-07-10T17:59:14.676Z,22.80
2017-07-10T18:01:42.999Z,22.80
2017-07-10T18:04:11.379Z,22.70
2017-07-10T18:06:40.473Z,22.60
2017-07-10T18:09:08.864Z,22.60
2017-07-10T18:11:37.202Z,22.50
2017-07-10T18:14:05.587Z,22.30
2017-07-10T18:16:33.929Z,22.30
2017-07-10T18:19:02.252Z,22.30
2017-07-10T18:21:31.399Z,22.10
2017-07-10T18:23:59.716Z,22.10
2017-07-10T18:26:28.059Z,22.00
2017-07-10T18:28:56.399Z,22.00
2017-07-10T18:31:24.739Z,21.90
2017-07-10T18:33:53.044Z,21.90
2017-07-10T18:36:21.438Z,21.70
2017-07-10T18:38:49.789Z,21.70
2017-07-10T18:41:18.174Z,21.60
2017-07-10T18:43:47.264Z,21.50
2017-07-10T18:46:15.577Z,21.40
2017-07-10T18:48:44.103Z,21.40
2017-07-10T18:51:12.411Z,21.40
2017-07-10T18:53:41.565Z,21.30
2017-07-10T18:56:09.888Z,21.20
2017-07-10T18:58:38.293Z,21.20
2017-07-10T19:01:06.677Z,21.10
2017-07-10T19:03:35.048Z,21.10
2017-07-10T19:06:03.377Z,20.90
2017-07-10T19:08:31.683Z,20.90
2017-07-10T19:11:00.032Z,20.90
2017-07-10T19:13:29.139Z,20.80
2017-07-10T19:15:57.466Z,20.80
2017-07-10T19:18:25.841Z,20.90
2017-07-10T19:20:54.521Z,20.90
2017-07-10T19:23:22.847Z,20.90
2017-07-10T19:25:52.032Z,20.80
2017-07-10T19:28:20.354Z,20.80
2017-07-10T19:30:48.703Z,20.70
2017-07-10T19:33:17.779Z,20.60
2017-07-10T19:35:46.184Z,20.60
2017-07-10T19:38:15.291Z,20.60
2017-07-10T19:40:43.623Z,20.50
2017-07-10T19:43:11.956Z,20.40
2017-07-10T19:45:40.299Z,20.50
2017-07-10T19:48:09.394Z,20.40
2017-07-10T19:50:38.525Z,20.50
2017-07-10T19:53:06.899Z,20.40
2017-07-10T19:55:35.258Z,20.50
2017-07-10T19:58:03.962Z,20.40
2017-07-10T20:00:32.326Z,20.30
2017-07-10T20:03:00.669Z,20.30
2017-07-10T20:05:28.990Z,20.30
2017-07-10T20:07:57.357Z,20.30
2017-07-10T20:10:25.670Z,20.30
2017-07-10T20:12:54.041Z,20.30
2017-07-10T20:15:22.454Z,20.30
2017-07-10T20:17:50.831Z,20.20
2017-07-10T20:20:19.224Z,20.20
2017-07-10T20:22:47.587Z,20.20
2017-07-10T20:25:15.950Z,20.20
2017-07-10T20:27:44.301Z,20.10
2017-07-10T20:30:12.634Z,20.00
2017-07-10T20:32:40.953Z,20.00
2017-07-10T20:35:09.287Z,20.00
2017-07-10T20:37:37.618Z,19.90
2017-07-10T20:40:05.969Z,19.90
2017-07-10T20:42:34.294Z,19.90
2017-07-10T20:45:02.639Z,19.90
2017-07-10T20:47:31.415Z,19.80
2017-07-10T20:49:59.891Z,19.80
2017-07-10T20:52:28.333Z,19.90
2017-07-10T20:54:56.692Z,19.80
2017-07-10T20:57:25.003Z,19.80
2017-07-10T20:59:54.125Z,19.80
2017-07-10T21:02:22.433Z,19.70
2017-07-10T21:04:50.833Z,19.70
2017-07-10T21:07:19.153Z,19.70
2017-07-10T21:09:47.597Z,19.70
2017-07-10T21:12:15.932Z,19.70
2017-07-10T21:14:44.248Z,19.70
2017-07-10T21:17:12.599Z,19.70
2017-07-10T21:19:40.909Z,19.60
2017-07-10T21:22:10.027Z,19.30
2017-07-10T21:24:38.356Z,19.20
2017-07-10T21:27:06.752Z,19.20
2017-07-10T21:29:35.069Z,19.10
2017-07-10T21:32:03.390Z,19.10
2017-07-10T21:34:31.720Z,19.10
2017-07-10T21:37:00.029Z,19.10
2017-07-10T21:39:28.477Z,19.00
2017-07-10T21:41:56.826Z,19.10
2017-07-10T21:44:25.141Z,19.00
2017-07-10T21:46:54.315Z,19.00
2017-07-10T21:49:23.517Z,19.00
2017-07-10T21:51:51.829Z,18.90
2017-07-10T21:54:20.173Z,18.80
2017-07-10T21:56:48.627Z,18.90
2017-07-10T21:59:16.965Z,18.80
2017-07-10T22:01:45.269Z,18.80
2017-07-10T22:04:13.605Z,18.80
2017-07-10T22:06:42.339Z,18.80
2017-07-10T22:09:10.719Z,18.80
2017-07-10T22:11:39.067Z,18.70
2017-07-10T22:14:07.376Z,18.80
2017-07-10T22:16:35.694Z,18.70
2017-07-10T22:19:04.073Z,18.70
2017-07-10T22:21:32.385Z,18.70
2017-07-10T22:24:00.742Z,18.70
2017-07-10T22:26:29.069Z,18.60
2017-07-10T22:28:58.171Z,18.60
2017-07-10T22:31:27.271Z,18.70
2017-07-10T22:33:56.374Z,18.60
2017-07-10T22:36:24.685Z,18.60
2017-07-10T22:38:53.165Z,18.60
2017-07-10T22:41:23.442Z,18.50
2017-07-10T22:43:51.820Z,18.50
2017-07-10T22:46:20.523Z,18.50
2017-07-10T22:48:48.865Z,18.40
2017-07-10T22:51:17.401Z,18.40
2017-07-10T22:53:45.813Z,18.50
2017-07-10T22:56:14.120Z,18.40
2017-07-10T22:58:42.610Z,18.40
2017-07-10T23:01:10.921Z,18.40
2017-07-10T23:03:39.271Z,18.40
2017-07-10T23:06:07.579Z,18.40
2017-07-10T23:08:35.908Z,18.40
2017-07-10T23:11:04.226Z,18.40
2017-07-10T23:13:32.565Z,18.30
2017-07-10T23:16:01.649Z,18.30
2017-07-10T23:18:30.948Z,18.30
2017-07-10T23:21:00.040Z,18.30
2017-07-10T23:23:29.124Z,18.30
2017-07-10T23:25:57.463Z,18.20
2017-07-10T23:28:25.798Z,18.30
2017-07-10T23:30:54.503Z,18.30
2017-07-10T23:33:23.052Z,18.20
2017-07-10T23:35:51.369Z,18.30
2017-07-10T23:38:19.684Z,18.30
2017-07-10T23:40:48.024Z,18.30
2017-07-10T23:43:16.837Z,18.30
2017-07-10T23:45:45.573Z,18.30
2017-07-10T23:48:13.909Z,18.30
2017-07-10T23:50:42.230Z,18.30
2017-07-10T23:53:11.337Z,18.30
2017-07-10T23:55:39.650Z,18.20
2017-07-10T23:58:08.008Z,18.20
